Time;durP1;ratioP1;P1;durP2;ratioP2;P2;SDS_P1;SDS_P2;PMS_P1;PMS_P2;Temp;Humidity;BMP_temperature;BMP_pressure;BME280_temperature;BME280_humidity;BME280_pressure;Samples;Min_cycle;Max_cycle;Signal;HPM_P1;HPM_P2
2023/10/22 00:03:21;;;;;;;1.60;1.00;;;;;;;;;;6081290;23;20174;-91
2023/10/22 00:06:48;;;;;;;1.45;0.73;;;;;;;;;;6082348;23;20203;-91
2023/10/22 00:10:12;;;;;;;1.08;0.50;;;;;;;;;;6082052;23;20241;-92
2023/10/22 00:13:37;;;;;;;1.20;0.90;;;;;;;;;;6082092;23;20216;-92
2023/10/22 00:17:03;;;;;;;1.85;0.90;;;;;;;;;;6082800;23;20187;-92
2023/10/22 00:20:30;;;;;;;1.75;0.82;;;;;;;;;;6081603;23;20175;-91
2023/10/22 00:23:56;;;;;;;1.45;0.80;;;;;;;;;;6083386;23;20182;-93
2023/10/22 00:27:21;;;;;;;2.45;0.73;;;;;;;;;;6084091;23;20175;-92
2023/10/22 00:30:26;;;;;;;2.30;0.57;;;;;;;;;;6066826;23;20171;-92
2023/10/22 00:33:31;;;;;;;1.42;0.50;;;;;;;;;;6082538;23;20162;-92
2023/10/22 00:36:36;;;;;;;1.13;0.60;;;;;;;;;;6082276;23;20150;-92
2023/10/22 00:39:54;;;;;;;1.80;0.85;;;;;;;;;;6081461;23;20290;-91
2023/10/22 00:43:05;;;;;;;1.08;0.63;;;;;;;;;;6082671;23;20610;-92
2023/10/22 00:46:11;;;;;;;1.23;0.60;;;;;;;;;;6082672;23;20197;-91
2023/10/22 00:49:17;;;;;;;0.95;0.43;;;;;;;;;;6066975;23;20246;-92
2023/10/22 00:52:23;;;;;;;0.95;0.43;;;;;;;;;;6082522;23;20223;-92
2023/10/22 00:55:29;;;;;;;0.75;0.60;;;;;;;;;;6082153;23;20244;-92
2023/10/22 00:58:35;;;;;;;0.45;0.45;;;;;;;;;;6083708;23;20178;-92
2023/10/22 01:01:40;;;;;;;1.52;0.52;;;;;;;;;;6083431;23;20173;-92
2023/10/22 01:04:45;;;;;;;1.40;0.90;;;;;;;;;;6064970;23;20253;-91
2023/10/22 01:07:51;;;;;;;1.38;0.80;;;;;;;;;;6065421;23;20266;-90
2023/10/22 01:11:06;;;;;;;1.85;0.70;;;;;;;;;;6080999;23;20634;-91
2023/10/22 01:14:13;;;;;;;1.48;0.73;;;;;;;;;;6082371;23;20174;-91
2023/10/22 01:17:18;;;;;;;1.30;0.70;;;;;;;;;;6080679;23;20166;-92
2023/10/22 01:20:23;;;;;;;0.88;0.50;;;;;;;;;;6081449;23;20158;-90
2023/10/22 01:23:30;;;;;;;1.42;0.70;;;;;;;;;;6065855;23;20174;-91
2023/10/22 01:26:41;;;;;;;2.00;0.70;;;;;;;;;;6065823;23;20194;-90
2023/10/22 01:29:46;;;;;;;2.65;0.60;;;;;;;;;;6082525;23;20219;-91
2023/10/22 01:32:52;;;;;;;3.30;0.57;;;;;;;;;;6081690;23;20194;-91
2023/10/22 01:35:57;;;;;;;1.80;0.63;;;;;;;;;;6081439;23;20510;-91
2023/10/22 01:39:04;;;;;;;1.13;0.60;;;;;;;;;;6081228;23;20175;-91
2023/10/22 01:42:09;;;;;;;0.70;0.60;;;;;;;;;;6081334;23;20175;-90
2023/10/22 01:45:14;;;;;;;0.77;0.60;;;;;;;;;;6079918;23;20215;-92
2023/10/22 01:48:19;;;;;;;0.52;0.50;;;;;;;;;;6063367;23;20190;-91
2023/10/22 01:51:24;;;;;;;0.88;0.60;;;;;;;;;;6080953;23;20191;-91
2023/10/22 01:54:34;;;;;;;1.02;0.80;;;;;;;;;;6080236;23;20174;-91
2023/10/22 01:57:39;;;;;;;1.67;1.20;;;;;;;;;;6079616;23;20357;-92
2023/10/22 02:00:44;;;;;;;1.55;0.95;;;;;;;;;;6079040;23;20174;-90
2023/10/22 02:03:52;;;;;;;1.63;1.08;;;;;;;;;;6080100;23;20227;-92
2023/10/22 02:06:57;;;;;;;4.50;0.73;;;;;;;;;;6081245;23;20202;-91
2023/10/22 02:10:06;;;;;;;2.40;0.90;;;;;;;;;;6080192;23;20171;-92
2023/10/22 02:13:12;;;;;;;1.52;0.68;;;;;;;;;;6080855;23;20171;-92
2023/10/22 02:16:20;;;;;;;1.35;0.68;;;;;;;;;;6062663;23;20690;-92
2023/10/22 02:19:26;;;;;;;1.27;0.70;;;;;;;;;;6081024;23;20155;-93
2023/10/22 02:22:31;;;;;;;0.98;0.70;;;;;;;;;;6080182;23;20526;-92
2023/10/22 02:25:37;;;;;;;1.27;0.70;;;;;;;;;;6081094;23;20170;-91
2023/10/22 02:28:43;;;;;;;1.23;0.80;;;;;;;;;;6081523;23;20154;-91
2023/10/22 02:31:48;;;;;;;1.90;0.93;;;;;;;;;;6079906;23;20302;-91
2023/10/22 02:34:53;;;;;;;0.85;0.70;;;;;;;;;;6080891;23;20203;-92
2023/10/22 02:37:58;;;;;;;1.38;0.90;;;;;;;;;;6081318;23;20170;-92
2023/10/22 02:41:04;;;;;;;1.15;0.80;;;;;;;;;;6078441;23;20170;-92
2023/10/22 02:44:10;;;;;;;1.00;0.85;;;;;;;;;;6064048;23;20174;-91
2023/10/22 02:47:15;;;;;;;1.10;0.80;;;;;;;;;;6079192;23;20205;-91
2023/10/22 02:50:20;;;;;;;1.35;0.60;;;;;;;;;;6081704;23;20149;-92
2023/10/22 02:53:25;;;;;;;0.85;0.82;;;;;;;;;;6083422;23;20162;-91
2023/10/22 02:56:32;;;;;;;1.27;0.80;;;;;;;;;;6083573;23;20175;-91
2023/10/22 02:59:37;;;;;;;1.25;0.80;;;;;;;;;;6081646;23;20166;-92
2023/10/22 03:02:43;;;;;;;1.35;0.88;;;;;;;;;;6081510;23;20218;-91
2023/10/22 03:05:48;;;;;;;1.33;0.90;;;;;;;;;;6081475;23;20162;-91
2023/10/22 03:08:53;;;;;;;1.33;0.80;;;;;;;;;;6081769;23;20167;-91
2023/10/22 03:12:04;;;;;;;1.58;1.05;;;;;;;;;;6082837;23;20251;-91
2023/10/22 03:15:10;;;;;;;1.52;0.73;;;;;;;;;;6081062;23;20166;-92
2023/10/22 03:18:15;;;;;;;3.22;0.77;;;;;;;;;;6080818;23;20170;-91
2023/10/22 03:21:24;;;;;;;0.90;0.80;;;;;;;;;;6080254;23;20175;-92
2023/10/22 03:24:30;;;;;;;3.22;0.90;;;;;;;;;;6080927;23;20174;-92
2023/10/22 03:27:37;;;;;;;1.60;0.70;;;;;;;;;;6081195;23;20249;-93
2023/10/22 03:30:42;;;;;;;1.95;0.90;;;;;;;;;;6064267;23;20191;-92
2023/10/22 03:33:47;;;;;;;2.50;0.90;;;;;;;;;;6080897;23;20155;-92
2023/10/22 03:36:52;;;;;;;1.05;0.80;;;;;;;;;;6082159;23;20175;-92
2023/10/22 03:39:58;;;;;;;1.67;1.00;;;;;;;;;;6082203;23;20170;-92
2023/10/22 03:43:04;;;;;;;2.97;1.23;;;;;;;;;;6083097;23;20174;-91
2023/10/22 03:46:09;;;;;;;1.42;0.80;;;;;;;;;;6081664;23;20214;-92
2023/10/22 03:49:14;;;;;;;3.08;0.90;;;;;;;;;;6080633;23;20171;-91
2023/10/22 03:52:20;;;;;;;2.00;0.98;;;;;;;;;;6064105;23;20549;-92
2023/10/22 03:55:27;;;;;;;2.10;0.93;;;;;;;;;;6081312;23;20605;-92
2023/10/22 03:58:34;;;;;;;2.08;1.05;;;;;;;;;;6081729;23;20178;-92
2023/10/22 04:01:38;;;;;;;1.65;0.90;;;;;;;;;;6083357;23;20245;-92
2023/10/22 04:04:44;;;;;;;1.42;1.00;;;;;;;;;;6081682;23;20170;-91
2023/10/22 04:07:49;;;;;;;1.45;0.90;;;;;;;;;;6081615;23;20249;-92
2023/10/22 04:10:54;;;;;;;2.20;1.23;;;;;;;;;;6081515;23;20282;-92
2023/10/22 04:14:01;;;;;;;3.10;1.27;;;;;;;;;;6082853;23;20618;-93
2023/10/22 04:17:06;;;;;;;1.20;0.80;;;;;;;;;;6082188;23;20171;-92
2023/10/22 04:20:11;;;;;;;0.80;0.75;;;;;;;;;;6065511;23;20178;-92
2023/10/22 04:23:16;;;;;;;2.17;0.90;;;;;;;;;;6080917;23;20610;-92
2023/10/22 04:26:21;;;;;;;1.30;0.82;;;;;;;;;;6082434;23;20202;-92
2023/10/22 04:29:27;;;;;;;2.33;0.90;;;;;;;;;;6082600;23;20171;-92
2023/10/22 04:32:32;;;;;;;1.85;0.90;;;;;;;;;;6082989;23;20190;-92
2023/10/22 04:35:38;;;;;;;3.33;0.80;;;;;;;;;;6082533;23;20208;-92
2023/10/22 04:38:43;;;;;;;2.67;0.90;;;;;;;;;;6082055;23;20231;-94
2023/10/22 04:41:48;;;;;;;1.65;0.90;;;;;;;;;;6066720;23;20154;-92
2023/10/22 04:44:54;;;;;;;2.58;0.80;;;;;;;;;;6083503;23;20174;-92
2023/10/22 04:47:59;;;;;;;5.50;1.00;;;;;;;;;;6083060;23;20198;-92
2023/10/22 04:51:06;;;;;;;4.82;1.00;;;;;;;;;;6065522;23;20255;-92
2023/10/22 04:54:11;;;;;;;1.65;1.10;;;;;;;;;;6081400;23;20202;-93
2023/10/22 04:57:17;;;;;;;1.75;0.98;;;;;;;;;;6082517;23;20158;-91
2023/10/22 05:00:24;;;;;;;1.05;0.85;;;;;;;;;;6082490;23;20174;-92
2023/10/22 05:03:29;;;;;;;2.88;0.90;;;;;;;;;;6082057;23;20174;-92
2023/10/22 05:06:34;;;;;;;1.40;1.00;;;;;;;;;;6081464;23;20198;-90
2023/10/22 05:09:39;;;;;;;2.90;1.33;;;;;;;;;;6080544;23;20215;-93
2023/10/22 05:12:44;;;;;;;1.85;1.10;;;;;;;;;;6081809;23;20229;-91
2023/10/22 05:15:56;;;;;;;2.40;0.90;;;;;;;;;;6080591;23;20175;-91
2023/10/22 05:19:01;;;;;;;1.58;1.00;;;;;;;;;;6079770;23;20294;-92
2023/10/22 05:22:06;;;;;;;1.65;1.15;;;;;;;;;;6079845;23;20182;-92
2023/10/22 05:25:12;;;;;;;1.67;0.90;;;;;;;;;;6063675;23;20182;-92
2023/10/22 05:28:17;;;;;;;3.58;1.10;;;;;;;;;;6079846;23;20287;-91
2023/10/22 05:31:24;;;;;;;1.65;0.90;;;;;;;;;;6080452;23;20198;-91
2023/10/22 05:34:29;;;;;;;4.20;2.78;;;;;;;;;;6078770;23;20196;-91
2023/10/22 05:37:35;;;;;;;4.13;1.60;;;;;;;;;;6064881;23;20211;-92
2023/10/22 05:40:39;;;;;;;1.42;1.02;;;;;;;;;;6080858;23;20720;-91
2023/10/22 05:43:45;;;;;;;2.30;1.50;;;;;;;;;;6081432;23;20166;-91
2023/10/22 05:46:51;;;;;;;9.18;5.03;;;;;;;;;;6080784;23;20295;-92
2023/10/22 05:49:57;;;;;;;21.08;8.25;;;;;;;;;;6080027;23;20513;-91
2023/10/22 05:53:02;;;;;;;2.17;1.23;;;;;;;;;;6082488;23;20223;-91
2023/10/22 05:56:07;;;;;;;6.07;1.50;;;;;;;;;;6080909;23;20180;-93
2023/10/22 05:59:12;;;;;;;3.10;1.60;;;;;;;;;;6080273;23;20172;-93
2023/10/22 06:02:19;;;;;;;2.08;1.20;;;;;;;;;;6080980;23;20223;-92
2023/10/22 06:05:24;;;;;;;22.95;8.55;;;;;;;;;;6079508;23;20509;-92
2023/10/22 06:08:29;;;;;;;18.67;7.38;;;;;;;;;;6080430;23;20248;-92
2023/10/22 06:11:35;;;;;;;2.55;1.48;;;;;;;;;;6080431;23;20174;-92
2023/10/22 06:14:40;;;;;;;5.47;2.00;;;;;;;;;;6080096;23;20213;-92
2023/10/22 06:17:47;;;;;;;11.80;1.98;;;;;;;;;;6079622;23;20217;-92
2023/10/22 06:20:52;;;;;;;3.53;1.80;;;;;;;;;;6079194;23;20166;-91
2023/10/22 06:23:58;;;;;;;5.35;1.98;;;;;;;;;;6064169;23;20166;-91
2023/10/22 06:27:03;;;;;;;5.65;2.90;;;;;;;;;;6080216;23;20194;-92
2023/10/22 06:30:08;;;;;;;7.30;3.50;;;;;;;;;;6080734;23;20178;-93
2023/10/22 06:33:15;;;;;;;7.05;2.90;;;;;;;;;;6079916;23;20626;-91
2023/10/22 06:36:21;;;;;;;4.93;2.80;;;;;;;;;;6080507;23;20166;-92
2023/10/22 06:39:26;;;;;;;5.55;2.58;;;;;;;;;;6081584;23;20215;-91
2023/10/22 06:42:31;;;;;;;4.55;2.30;;;;;;;;;;6081311;23;20183;-92
2023/10/22 06:45:37;;;;;;;4.32;2.10;;;;;;;;;;6081809;23;20502;-93
2023/10/22 06:48:46;;;;;;;3.13;1.85;;;;;;;;;;6082164;23;20243;-91
2023/10/22 06:51:52;;;;;;;6.25;1.80;;;;;;;;;;6080757;23;20634;-92
2023/10/22 06:54:57;;;;;;;3.83;1.67;;;;;;;;;;6065809;23;20174;-91
2023/10/22 06:58:03;;;;;;;5.25;1.90;;;;;;;;;;6081560;23;20175;-92
2023/10/22 07:01:08;;;;;;;3.72;1.60;;;;;;;;;;6080864;23;20210;-92
2023/10/22 07:04:14;;;;;;;5.10;1.58;;;;;;;;;;6064069;23;20240;-90
2023/10/22 07:07:19;;;;;;;2.22;1.52;;;;;;;;;;6080790;23;20194;-91
2023/10/22 07:10:26;;;;;;;5.25;1.50;;;;;;;;;;6080612;23;20177;-92
2023/10/22 07:13:31;;;;;;;4.28;1.40;;;;;;;;;;6082187;23;20290;-90
2023/10/22 07:16:37;;;;;;;1.98;1.30;;;;;;;;;;6084006;23;20182;-92
2023/10/22 07:23:04;;;;;;;4.82;1.42;;;;;;;;;;6066396;23;20229;-91
2023/10/22 07:26:09;;;;;;;3.47;1.85;;;;;;;;;;6084663;23;20163;-89
2023/10/22 07:29:16;;;;;;;4.22;2.50;;;;;;;;;;6068195;23;20219;-91
2023/10/22 07:32:21;;;;;;;5.70;1.80;;;;;;;;;;6085369;23;20219;-91
2023/10/22 07:35:28;;;;;;;6.38;1.90;;;;;;;;;;6086213;23;20651;-91
2023/10/22 07:38:34;;;;;;;3.25;1.85;;;;;;;;;;6086888;23;20239;-92
2023/10/22 07:41:40;;;;;;;3.60;1.70;;;;;;;;;;6088258;23;20224;-93
2023/10/22 07:44:45;;;;;;;4.28;1.70;;;;;;;;;;6068184;23;20166;-92
2023/10/22 07:47:50;;;;;;;3.55;2.00;;;;;;;;;;6083460;23;20194;-91
2023/10/22 07:51:08;;;;;;;4.15;1.80;;;;;;;;;;6083923;23;20155;-92
2023/10/22 07:54:13;;;;;;;4.18;1.70;;;;;;;;;;6082142;23;20241;-92
2023/10/22 07:57:18;;;;;;;4.10;1.58;;;;;;;;;;6061889;23;20478;-93
2023/10/22 08:00:23;;;;;;;2.70;1.77;;;;;;;;;;6082668;23;20178;-92
2023/10/22 08:03:29;;;;;;;4.88;1.52;;;;;;;;;;6082134;23;20170;-92
2023/10/22 08:06:36;;;;;;;5.05;1.60;;;;;;;;;;6082750;23;20220;-92
2023/10/22 08:09:42;;;;;;;4.38;1.40;;;;;;;;;;6081847;23;20166;-91
2023/10/22 08:12:48;;;;;;;4.75;2.00;;;;;;;;;;6086351;23;20248;-93
2023/10/22 08:15:54;;;;;;;6.30;1.80;;;;;;;;;;6087593;23;20174;-94
2023/10/22 08:18:59;;;;;;;2.63;1.50;;;;;;;;;;6081414;23;20174;-93
2023/10/22 08:22:06;;;;;;;2.13;1.42;;;;;;;;;;6083597;23;20297;-90
2023/10/22 08:25:11;;;;;;;3.17;1.80;;;;;;;;;;6066867;23;20623;-92
2023/10/22 08:28:16;;;;;;;5.30;1.58;;;;;;;;;;6081694;23;20198;-91
2023/10/22 08:31:22;;;;;;;8.75;1.40;;;;;;;;;;6082261;23;20174;-91
2023/10/22 08:34:27;;;;;;;3.78;1.30;;;;;;;;;;6082221;23;20712;-89
2023/10/22 08:37:34;;;;;;;3.08;1.40;;;;;;;;;;6066807;23;20158;-90
2023/10/22 08:40:41;;;;;;;5.03;1.60;;;;;;;;;;6083232;23;20179;-91
2023/10/22 08:43:47;;;;;;;4.75;1.58;;;;;;;;;;6083071;23;20239;-91
2023/10/22 08:46:52;;;;;;;2.35;1.05;;;;;;;;;;6085240;23;20155;-92
2023/10/22 08:49:58;;;;;;;4.28;1.17;;;;;;;;;;6081659;23;20169;-90
2023/10/22 08:53:05;;;;;;;3.70;0.90;;;;;;;;;;6081901;23;20167;-91
2023/10/22 08:59:29;;;;;;;1.40;1.00;;;;;;;;;;6064934;23;20174;-91
2023/10/22 09:02:35;;;;;;;2.53;1.00;;;;;;;;;;6083116;23;20158;-92
2023/10/22 09:05:40;;;;;;;2.00;0.77;;;;;;;;;;6066309;23;20175;-92
2023/10/22 09:08:51;;;;;;;2.08;0.95;;;;;;;;;;6084575;23;20193;-91
2023/10/22 09:11:57;;;;;;;3.72;0.93;;;;;;;;;;6082706;23;20179;-92
2023/10/22 09:15:02;;;;;;;1.10;0.75;;;;;;;;;;6081800;23;20498;-92
2023/10/22 09:18:08;;;;;;;1.10;0.80;;;;;;;;;;6083443;23;20207;-93
2023/10/22 09:21:13;;;;;;;1.80;0.80;;;;;;;;;;6082658;23;20170;-92
2023/10/22 09:24:20;;;;;;;2.35;0.77;;;;;;;;;;6081710;23;20591;-92
2023/10/22 09:27:27;;;;;;;3.33;0.90;;;;;;;;;;6084795;23;20167;-92
2023/10/22 09:30:33;;;;;;;1.10;0.50;;;;;;;;;;6069211;23;20166;-91
2023/10/22 09:33:43;;;;;;;1.48;0.80;;;;;;;;;;6083322;23;20162;-91
2023/10/22 09:36:52;;;;;;;1.30;0.60;;;;;;;;;;6083209;23;20174;-92
2023/10/22 09:39:59;;;;;;;1.35;0.73;;;;;;;;;;6065673;23;20244;-92
2023/10/22 09:43:05;;;;;;;1.25;0.50;;;;;;;;;;6084134;23;20172;-94
2023/10/22 09:46:14;;;;;;;0.95;0.65;;;;;;;;;;6082736;23;20236;-90
2023/10/22 09:49:20;;;;;;;4.60;0.95;;;;;;;;;;6083141;23;20182;-91
2023/10/22 09:52:26;;;;;;;1.40;0.80;;;;;;;;;;6081726;23;20192;-92
2023/10/22 09:55:34;;;;;;;2.92;1.23;;;;;;;;;;6082621;23;20234;-92
2023/10/22 09:58:44;;;;;;;4.35;1.17;;;;;;;;;;6084078;23;20167;-91
2023/10/22 10:01:50;;;;;;;1.58;0.70;;;;;;;;;;6082102;23;20234;-91
2023/10/22 10:04:56;;;;;;;2.55;0.90;;;;;;;;;;6083306;23;20219;-93
2023/10/22 10:08:02;;;;;;;2.75;0.93;;;;;;;;;;6083878;23;20201;-92
2023/10/22 10:11:10;;;;;;;2.33;0.90;;;;;;;;;;6083606;23;20174;-90
2023/10/22 10:14:35;;;;;;;1.90;0.80;;;;;;;;;;6067864;23;20183;-92
2023/10/22 10:17:52;;;;;;;1.27;0.70;;;;;;;;;;6082926;23;20158;-90
2023/10/22 10:20:58;;;;;;;2.28;0.73;;;;;;;;;;6084317;23;20195;-91
2023/10/22 10:24:20;;;;;;;1.80;0.70;;;;;;;;;;6082803;23;20178;-92
2023/10/22 10:27:27;;;;;;;2.10;1.10;;;;;;;;;;6083090;23;20235;-90
2023/10/22 10:30:33;;;;;;;2.10;0.70;;;;;;;;;;6082340;23;20174;-90
2023/10/22 10:33:54;;;;;;;1.50;0.80;;;;;;;;;;6069533;23;20210;-91
2023/10/22 10:36:59;;;;;;;2.17;0.75;;;;;;;;;;6036727;23;20188;-92
2023/10/22 10:40:06;;;;;;;2.65;1.30;;;;;;;;;;6053530;23;20195;-91
2023/10/22 10:43:13;;;;;;;2.38;1.10;;;;;;;;;;6037033;23;20187;-92
2023/10/22 10:46:29;;;;;;;3.67;1.02;;;;;;;;;;6036426;23;20167;-91
2023/10/22 10:49:59;;;;;;;4.20;1.10;;;;;;;;;;6036613;23;20249;-92
2023/10/22 10:53:05;;;;;;;1.10;0.80;;;;;;;;;;6036571;23;20183;-93
2023/10/22 10:56:10;;;;;;;2.47;0.77;;;;;;;;;;6036119;23;20171;-92
2023/10/22 10:59:27;;;;;;;2.55;0.88;;;;;;;;;;6037317;23;20174;-91
2023/10/22 11:02:42;;;;;;;2.30;0.73;;;;;;;;;;6039292;23;20223;-92
2023/10/22 11:05:48;;;;;;;3.22;0.80;;;;;;;;;;6039542;23;20163;-92
2023/10/22 11:08:57;;;;;;;3.47;1.38;;;;;;;;;;6037369;23;20203;-92
2023/10/22 11:12:04;;;;;;;1.00;0.70;;;;;;;;;;6039245;23;20156;-92
2023/10/22 11:15:13;;;;;;;0.88;0.70;;;;;;;;;;6037818;23;20208;-92
2023/10/22 11:18:18;;;;;;;2.97;0.70;;;;;;;;;;6051914;23;20179;-91
2023/10/22 11:21:24;;;;;;;2.30;0.80;;;;;;;;;;6036727;23;20167;-94
2023/10/22 11:24:42;;;;;;;3.17;0.70;;;;;;;;;;6053996;23;20159;-92
2023/10/22 11:27:48;;;;;;;1.63;0.70;;;;;;;;;;6039177;23;20172;-91
2023/10/22 11:31:09;;;;;;;3.03;1.10;;;;;;;;;;6058269;23;20171;-90
2023/10/22 11:34:16;;;;;;;2.53;0.88;;;;;;;;;;6086597;23;20174;-92
2023/10/22 11:37:23;;;;;;;2.92;1.15;;;;;;;;;;6083531;23;20173;-91
2023/10/22 11:40:29;;;;;;;2.60;0.80;;;;;;;;;;6084250;23;20171;-92
2023/10/22 11:43:36;;;;;;;1.30;0.65;;;;;;;;;;6082538;23;20175;-93
2023/10/22 11:46:42;;;;;;;2.78;0.80;;;;;;;;;;6083489;23;20174;-93
2023/10/22 11:50:04;;;;;;;1.77;0.63;;;;;;;;;;6083099;23;20217;-92
2023/10/22 11:53:12;;;;;;;2.05;1.00;;;;;;;;;;6084759;23;20166;-92
2023/10/22 11:56:17;;;;;;;2.40;0.85;;;;;;;;;;6083992;23;20174;-93
2023/10/22 11:59:23;;;;;;;3.13;0.98;;;;;;;;;;6082969;23;20154;-91
2023/10/22 12:02:30;;;;;;;2.78;1.05;;;;;;;;;;6084828;23;20196;-93
2023/10/22 12:05:39;;;;;;;1.05;0.60;;;;;;;;;;6068462;23;20195;-92
2023/10/22 12:08:46;;;;;;;2.30;0.70;;;;;;;;;;6083788;23;20211;-91
2023/10/22 12:11:53;;;;;;;1.85;0.60;;;;;;;;;;6084305;23;20215;-92
2023/10/22 12:14:59;;;;;;;2.97;1.35;;;;;;;;;;6084404;23;20184;-95
2023/10/22 12:18:07;;;;;;;3.38;1.00;;;;;;;;;;6082656;23;20187;-92
2023/10/22 12:21:12;;;;;;;2.38;0.75;;;;;;;;;;6084604;23;20174;-92
2023/10/22 12:24:20;;;;;;;1.10;0.75;;;;;;;;;;6083031;23;20232;-92
2023/10/22 12:27:26;;;;;;;1.85;0.82;;;;;;;;;;6083686;23;20171;-93
2023/10/22 12:30:31;;;;;;;1.13;0.75;;;;;;;;;;6085351;23;20201;-91
2023/10/22 12:33:36;;;;;;;2.67;0.93;;;;;;;;;;6084886;23;20171;-90
2023/10/22 12:36:43;;;;;;;2.58;0.70;;;;;;;;;;6068233;23;20154;-92
2023/10/22 12:39:49;;;;;;;1.02;0.60;;;;;;;;;;6085614;23;20166;-92
2023/10/22 12:42:55;;;;;;;2.38;0.82;;;;;;;;;;6083590;23;20166;-93
2023/10/22 12:46:03;;;;;;;1.73;0.75;;;;;;;;;;6086212;23;20214;-92
2023/10/22 12:49:08;;;;;;;3.55;1.15;;;;;;;;;;6084945;23;20198;-91
2023/10/22 12:52:14;;;;;;;1.77;0.70;;;;;;;;;;6085261;23;20634;-92
2023/10/22 12:55:20;;;;;;;4.38;1.55;;;;;;;;;;6085412;23;20167;-92
2023/10/22 12:58:27;;;;;;;5.70;1.33;;;;;;;;;;6087010;23;20166;-92
2023/10/22 13:01:32;;;;;;;1.73;0.68;;;;;;;;;;6085822;23;20216;-94
2023/10/22 13:04:37;;;;;;;1.60;0.80;;;;;;;;;;6085774;23;20191;-93
2023/10/22 13:07:43;;;;;;;1.98;0.80;;;;;;;;;;6087765;23;20223;-91
2023/10/22 13:10:50;;;;;;;2.08;0.60;;;;;;;;;;6085284;23;20199;-94
2023/10/22 13:13:55;;;;;;;2.22;0.80;;;;;;;;;;6082762;23;20291;-92
2023/10/22 13:17:00;;;;;;;4.53;1.15;;;;;;;;;;6084185;23;20246;-91
2023/10/22 13:20:08;;;;;;;4.50;2.20;;;;;;;;;;6083409;23;20174;-92
2023/10/22 13:23:14;;;;;;;1.33;0.85;;;;;;;;;;6084124;23;20175;-91
2023/10/22 13:26:21;;;;;;;2.25;0.90;;;;;;;;;;6066348;23;20170;-93
2023/10/22 13:29:27;;;;;;;4.00;1.20;;;;;;;;;;6082454;23;20198;-93
2023/10/22 13:32:32;;;;;;;2.58;0.80;;;;;;;;;;6081799;23;20193;-92
2023/10/22 13:35:37;;;;;;;4.05;0.70;;;;;;;;;;6083295;23;20162;-93
2023/10/22 13:38:42;;;;;;;2.65;0.75;;;;;;;;;;6081197;23;20237;-91
2023/10/22 13:41:48;;;;;;;1.73;0.80;;;;;;;;;;6081712;23;20173;-89
2023/10/22 13:44:54;;;;;;;4.25;1.95;;;;;;;;;;6085085;23;20158;-91
2023/10/22 13:48:00;;;;;;;2.67;0.98;;;;;;;;;;6083332;23;20226;-91
2023/10/22 13:51:10;;;;;;;1.58;0.80;;;;;;;;;;6085038;23;20163;-90
2023/10/22 13:54:18;;;;;;;2.78;0.80;;;;;;;;;;6084315;23;20175;-91
2023/10/22 13:57:28;;;;;;;0.95;0.77;;;;;;;;;;6068615;23;20170;-91
2023/10/22 14:00:38;;;;;;;1.00;0.70;;;;;;;;;;6083384;23;20504;-91
2023/10/22 14:03:44;;;;;;;1.65;0.80;;;;;;;;;;6084698;23;20174;-91
2023/10/22 14:06:49;;;;;;;2.33;0.80;;;;;;;;;;6067770;23;20219;-92
2023/10/22 14:09:55;;;;;;;2.05;0.85;;;;;;;;;;6082481;23;20276;-93
2023/10/22 14:13:04;;;;;;;2.90;1.08;;;;;;;;;;6083066;23;20186;-91
2023/10/22 14:16:09;;;;;;;2.65;0.80;;;;;;;;;;6083415;23;20170;-92
2023/10/22 14:19:15;;;;;;;2.67;0.80;;;;;;;;;;6082909;23;20175;-91
2023/10/22 14:22:21;;;;;;;1.88;1.10;;;;;;;;;;6086127;23;20186;-89
2023/10/22 14:25:27;;;;;;;2.63;1.08;;;;;;;;;;6087473;23;20239;-91
2023/10/22 14:31:53;;;;;;;1.30;0.73;;;;;;;;;;6067549;23;20198;-92
2023/10/22 14:35:08;;;;;;;2.25;0.70;;;;;;;;;;6085041;23;20175;-92
2023/10/22 14:38:14;;;;;;;2.55;0.80;;;;;;;;;;6084283;23;20174;-92
2023/10/22 14:44:43;;;;;;;4.22;0.75;;;;;;;;;;6070499;23;20186;-91
2023/10/22 14:47:54;;;;;;;2.50;0.80;;;;;;;;;;6073889;23;20257;-91
2023/10/22 14:51:00;;;;;;;1.35;0.75;;;;;;;;;;6090987;23;20198;-90
2023/10/22 14:54:06;;;;;;;1.98;0.60;;;;;;;;;;6083557;23;20246;-91
2023/10/22 14:57:12;;;;;;;2.63;1.00;;;;;;;;;;6085857;23;20196;-90
2023/10/22 15:04:06;;;;;;;2.05;0.60;;;;;;;;;;6071372;23;20211;-91
2023/10/22 15:07:19;;;;;;;3.90;0.70;;;;;;;;;;6068354;23;20219;-91
2023/10/22 19:56:39;;;;;;;8.27;2.88;;;;;;;;;;6036174;23;20202;31
2023/10/22 19:59:46;;;;;;;8.80;3.67;;;;;;;;;;6031517;23;20199;-92
2023/10/22 20:02:52;;;;;;;7.93;3.35;;;;;;;;;;6032945;23;20244;-93
2023/10/22 20:05:59;;;;;;;11.73;3.22;;;;;;;;;;6039069;23;20167;-91
